createdAt,value
2022-12-10T00:02:16.204Z,12.40
2022-12-10T00:05:18.494Z,12.47
2022-12-10T00:08:20.773Z,13.55
2022-12-10T00:11:24.633Z,12.13
2022-12-10T00:14:26.876Z,12.05
2022-12-10T00:17:29.118Z,11.43
2022-12-10T00:20:31.352Z,11.20
2022-12-10T00:23:34.250Z,11.48
2022-12-10T00:26:37.958Z,11.02
2022-12-10T00:29:40.287Z,10.52
2022-12-10T00:32:42.475Z,9.90
2022-12-10T00:35:44.742Z,11.17
2022-12-10T00:38:47.963Z,11.48
2022-12-10T00:41:50.376Z,11.10
2022-12-10T00:44:52.628Z,10.63
2022-12-10T00:47:54.888Z,9.93
2022-12-10T00:51:10.843Z,10.57
2022-12-10T00:54:13.539Z,11.43
2022-12-10T00:57:15.759Z,10.60
2022-12-10T01:00:18.276Z,13.00
2022-12-10T01:03:20.685Z,12.10
2022-12-10T01:06:27.973Z,10.17
2022-12-10T01:09:31.448Z,9.60
2022-12-10T01:12:33.781Z,9.07
2022-12-10T01:15:39.136Z,8.93
2022-12-10T01:18:41.834Z,9.10
2022-12-10T01:21:44.059Z,9.00
2022-12-10T01:24:46.268Z,9.45
2022-12-10T01:27:48.924Z,7.93
2022-12-10T01:30:51.156Z,7.68
2022-12-10T01:33:53.622Z,7.57
2022-12-10T01:36:55.914Z,7.53
2022-12-10T01:39:58.130Z,7.82
2022-12-10T01:43:00.647Z,7.68
2022-12-10T01:46:03.000Z,7.25
2022-12-10T01:49:07.742Z,8.10
2022-12-10T01:52:11.986Z,7.40
2022-12-10T01:55:41.270Z,6.80
2022-12-10T01:58:44.061Z,7.22
2022-12-10T02:01:58.720Z,7.88
2022-12-10T02:05:30.084Z,6.27
2022-12-10T02:08:41.917Z,6.37
2022-12-10T02:11:50.442Z,6.35
2022-12-10T02:14:57.940Z,6.20
2022-12-10T02:18:14.564Z,6.30
2022-12-10T02:21:22.532Z,6.20
2022-12-10T02:24:29.012Z,6.03
2022-12-10T02:27:40.350Z,6.05
2022-12-10T02:30:44.290Z,5.13
2022-12-10T02:33:51.635Z,5.63
2022-12-10T02:36:55.905Z,5.83
2022-12-10T02:40:01.348Z,6.10
2022-12-10T02:43:07.581Z,6.68
2022-12-10T02:46:10.099Z,6.28
2022-12-10T02:49:14.943Z,6.45
2022-12-10T02:52:20.173Z,5.90
2022-12-10T02:55:26.697Z,5.30
2022-12-10T02:58:56.419Z,5.60
2022-12-10T03:02:16.613Z,6.00
2022-12-10T03:05:29.845Z,5.90
2022-12-10T03:08:36.178Z,5.37
2022-12-10T03:11:41.032Z,6.13
2022-12-10T03:14:44.318Z,5.78
2022-12-10T03:17:47.278Z,5.70
2022-12-10T03:20:51.507Z,6.10
2022-12-10T03:23:54.099Z,5.43
2022-12-10T03:26:58.311Z,6.10
2022-12-10T03:30:00.847Z,6.93
2022-12-10T03:33:03.221Z,6.88
2022-12-10T03:36:06.819Z,6.75
2022-12-10T03:39:09.794Z,7.33
2022-12-10T03:42:12.597Z,7.83
2022-12-10T03:45:15.397Z,8.05
2022-12-10T03:48:17.661Z,7.10
2022-12-10T03:51:20.736Z,7.15
2022-12-10T03:54:23.581Z,7.67
2022-12-10T03:57:26.413Z,7.67
2022-12-10T04:00:28.749Z,7.72
2022-12-10T04:03:31.409Z,7.20
2022-12-10T04:06:33.922Z,6.65
2022-12-10T04:09:36.232Z,5.27
2022-12-10T04:12:38.430Z,4.37
2022-12-10T04:15:59.122Z,4.57
2022-12-10T04:19:06.588Z,4.13
2022-12-10T04:22:28.238Z,4.20
2022-12-10T04:25:49.065Z,5.80
2022-12-10T04:28:51.338Z,6.87
2022-12-10T04:31:53.810Z,6.90
2022-12-10T04:34:56.864Z,6.35
2022-12-10T04:37:59.309Z,7.28
2022-12-10T04:41:01.539Z,7.13
2022-12-10T04:44:03.997Z,7.17
2022-12-10T04:47:08.031Z,7.72
2022-12-10T04:50:10.509Z,7.32
2022-12-10T04:53:12.977Z,7.38
2022-12-10T04:56:15.236Z,6.87
2022-12-10T04:59:17.616Z,6.17
2022-12-10T05:02:19.801Z,6.55
2022-12-10T05:05:22.017Z,6.90
2022-12-10T05:08:24.293Z,6.50
2022-12-10T05:11:28.883Z,5.50
2022-12-10T05:14:31.268Z,5.57
2022-12-10T05:17:33.903Z,5.70
2022-12-10T05:20:36.078Z,5.05
2022-12-10T05:23:38.881Z,5.00
2022-12-10T05:26:41.137Z,5.73
2022-12-10T05:29:44.543Z,6.13
2022-12-10T05:32:46.706Z,5.93
2022-12-10T05:36:02.789Z,5.43
2022-12-10T05:39:05.311Z,5.72
2022-12-10T05:42:07.517Z,6.10
2022-12-10T05:45:10.227Z,5.70
2022-12-10T05:48:13.807Z,5.82
2022-12-10T05:51:18.515Z,5.78
2022-12-10T05:54:20.739Z,5.53
2022-12-10T05:57:22.929Z,6.57
2022-12-10T06:00:25.175Z,6.90
2022-12-10T06:03:28.622Z,6.80
2022-12-10T06:06:36.260Z,5.72
2022-12-10T06:09:38.518Z,6.25
2022-12-10T06:12:40.735Z,5.97
2022-12-10T06:15:44.609Z,5.43
2022-12-10T06:18:46.898Z,6.15
2022-12-10T06:21:49.088Z,5.85
2022-12-10T06:24:51.270Z,6.57
2022-12-10T06:27:53.453Z,6.23
2022-12-10T06:30:55.685Z,6.93
2022-12-10T06:33:58.030Z,6.90
2022-12-10T06:37:00.708Z,6.85
2022-12-10T06:40:04.310Z,7.40
2022-12-10T06:43:06.471Z,7.93
2022-12-10T06:46:10.964Z,8.43
2022-12-10T06:49:13.269Z,8.18
2022-12-10T06:52:15.802Z,8.95
2022-12-10T06:55:18.003Z,10.40
2022-12-10T06:58:20.171Z,10.00
2022-12-10T07:01:27.193Z,9.63
2022-12-10T07:04:29.561Z,10.05
2022-12-10T07:07:31.791Z,10.07
2022-12-10T07:10:33.972Z,11.00
2022-12-10T07:13:37.014Z,11.93
2022-12-10T07:16:39.209Z,11.53
2022-12-10T07:19:41.400Z,10.85
2022-12-10T07:22:43.584Z,10.88
2022-12-10T07:25:45.808Z,12.23
2022-12-10T07:28:52.975Z,10.60
2022-12-10T07:31:56.352Z,10.57
2022-12-10T07:34:58.611Z,10.38
2022-12-10T07:38:00.775Z,10.57
2022-12-10T07:41:07.227Z,11.30
2022-12-10T07:44:12.795Z,10.10
2022-12-10T07:47:15.057Z,10.73
2022-12-10T07:50:17.297Z,10.32
2022-12-10T07:53:19.469Z,10.63
2022-12-10T07:56:23.500Z,9.60
2022-12-10T07:59:25.833Z,12.30
2022-12-10T08:02:28.058Z,13.77
2022-12-10T08:05:30.275Z,15.60
2022-12-10T08:08:34.323Z,16.80
2022-12-10T08:11:36.654Z,16.60
2022-12-10T08:14:38.882Z,16.60
2022-12-10T08:17:41.284Z,17.10
2022-12-10T08:20:43.447Z,16.08
2022-12-10T08:23:46.258Z,15.60
2022-12-10T08:26:48.442Z,14.98
2022-12-10T08:29:50.633Z,15.90
2022-12-10T08:32:52.876Z,15.33
2022-12-10T08:36:00.647Z,15.30
2022-12-10T08:39:05.383Z,13.68
2022-12-10T08:42:07.639Z,14.63
2022-12-10T08:45:10.303Z,14.97
2022-12-10T08:48:12.635Z,13.83
2022-12-10T08:51:16.756Z,13.45
2022-12-10T08:54:19.004Z,14.88
2022-12-10T08:57:21.301Z,13.63
2022-12-10T09:00:24.095Z,13.73
2022-12-10T09:03:26.597Z,13.17
2022-12-10T09:06:29.198Z,13.80
2022-12-10T09:09:32.905Z,13.30
2022-12-10T09:12:35.481Z,11.75
2022-12-10T09:15:37.949Z,11.00
2022-12-10T09:18:40.775Z,11.40
2022-12-10T09:21:43.004Z,10.60
2022-12-10T09:24:45.230Z,9.95
2022-12-10T09:27:47.456Z,9.60
2022-12-10T09:30:59.392Z,8.97
2022-12-10T09:34:01.787Z,8.83
2022-12-10T09:37:04.146Z,9.23
2022-12-10T09:40:07.077Z,10.30
2022-12-10T09:43:24.454Z,10.18
2022-12-10T09:46:26.663Z,11.10
2022-12-10T09:49:43.531Z,10.57
2022-12-10T09:52:48.480Z,10.35
2022-12-10T09:55:51.110Z,9.15
2022-12-10T09:58:53.473Z,10.35
2022-12-10T10:02:16.789Z,10.30
2022-12-10T10:05:23.614Z,11.70
2022-12-10T10:08:29.010Z,10.52
2022-12-10T10:11:33.494Z,10.35
2022-12-10T10:14:35.717Z,11.20
2022-12-10T10:17:38.603Z,13.10
2022-12-10T10:20:40.948Z,12.67
2022-12-10T10:23:45.145Z,12.43
2022-12-10T10:26:48.289Z,12.05
2022-12-10T10:29:57.622Z,14.40
2022-12-10T10:33:08.793Z,12.47
2022-12-10T10:36:12.252Z,13.63
2022-12-10T10:39:17.224Z,13.73
2022-12-10T10:42:40.563Z,12.93
2022-12-10T10:45:58.216Z,13.48
2022-12-10T10:49:22.572Z,12.93
2022-12-10T10:52:29.826Z,11.20
2022-12-10T10:55:36.878Z,11.75
2022-12-10T10:58:51.472Z,11.93
2022-12-10T11:01:56.726Z,11.60
2022-12-10T11:05:07.393Z,12.23
2022-12-10T11:08:22.168Z,11.77
2022-12-10T11:11:44.069Z,11.32
2022-12-10T11:14:47.073Z,11.90
2022-12-10T11:17:52.094Z,11.00
2022-12-10T11:20:59.658Z,12.27
2022-12-10T11:24:06.662Z,11.93
2022-12-10T11:27:26.282Z,11.25
2022-12-10T11:30:34.087Z,11.30
2022-12-10T11:34:07.232Z,11.57
2022-12-10T11:37:36.228Z,12.03
2022-12-10T11:40:45.739Z,15.57
2022-12-10T11:44:03.134Z,16.45
2022-12-10T11:47:17.909Z,13.68
2022-12-10T11:50:30.585Z,15.38
2022-12-10T11:53:52.030Z,15.50
2022-12-10T11:57:04.554Z,16.63
2022-12-10T12:00:12.705Z,16.58
2022-12-10T12:03:15.568Z,16.33
2022-12-10T12:06:26.891Z,15.50
2022-12-10T12:10:03.422Z,18.30
2022-12-10T12:13:09.981Z,19.27
2022-12-10T12:16:19.854Z,24.67
2022-12-10T12:19:33.166Z,22.50
2022-12-10T12:22:39.374Z,19.75
2022-12-10T12:25:51.122Z,18.03
2022-12-10T12:28:56.291Z,17.07
2022-12-10T12:32:26.879Z,18.33
2022-12-10T12:35:50.433Z,17.48
2022-12-10T12:39:15.220Z,18.90
2022-12-10T12:42:46.399Z,17.33
2022-12-10T12:45:50.501Z,20.93
2022-12-10T12:49:00.862Z,17.33
2022-12-10T12:52:15.236Z,17.40
2022-12-10T12:55:31.143Z,17.85
2022-12-10T12:58:44.655Z,18.37
2022-12-10T13:02:31.518Z,19.83
2022-12-10T13:05:36.488Z,20.75
2022-12-10T13:08:49.776Z,22.17
2022-12-10T13:12:04.096Z,20.70
2022-12-10T13:15:19.650Z,20.03
2022-12-10T13:18:39.267Z,21.10
2022-12-10T13:22:00.896Z,18.10
2022-12-10T13:25:16.067Z,20.92
2022-12-10T13:28:28.319Z,23.13
2022-12-10T13:31:30.749Z,23.07
2022-12-10T13:34:38.489Z,25.77
2022-12-10T13:37:57.175Z,30.33
2022-12-10T13:41:24.520Z,27.08
2022-12-10T13:44:49.482Z,19.42
2022-12-10T13:48:18.220Z,27.70
2022-12-10T13:51:37.597Z,22.40
2022-12-10T13:55:07.592Z,20.08
2022-12-10T13:58:28.262Z,21.98
2022-12-10T14:01:49.753Z,17.95
2022-12-10T14:05:24.110Z,17.50
2022-12-10T14:08:34.786Z,22.27
2022-12-10T14:11:41.775Z,23.23
2022-12-10T14:14:48.179Z,22.40
2022-12-10T14:17:52.240Z,19.05
2022-12-10T14:20:54.980Z,22.13
2022-12-10T14:24:03.273Z,23.23
2022-12-10T14:27:15.963Z,23.35
2022-12-10T14:30:22.264Z,23.85
2022-12-10T14:33:25.823Z,28.77
2022-12-10T14:36:35.049Z,20.70
2022-12-10T14:39:39.631Z,25.90
2022-12-10T14:42:41.860Z,24.45
2022-12-10T14:45:57.858Z,19.08
2022-12-10T14:49:00.361Z,23.83
2022-12-10T14:52:02.647Z,25.13
2022-12-10T14:55:05.463Z,21.97
2022-12-10T14:58:12.418Z,22.45
2022-12-10T15:01:24.650Z,21.60
2022-12-10T15:04:41.824Z,21.23
2022-12-10T15:07:52.638Z,18.53
2022-12-10T15:10:59.890Z,18.77
2022-12-10T15:14:04.335Z,25.02
2022-12-10T15:17:53.230Z,25.92
2022-12-10T15:21:06.026Z,32.67
2022-12-10T15:24:16.427Z,37.23
2022-12-10T15:27:24.198Z,35.47
2022-12-10T15:30:38.944Z,30.13
2022-12-10T15:33:46.159Z,26.92
2022-12-10T15:36:56.866Z,42.00
2022-12-10T15:40:02.348Z,40.07
2022-12-10T15:43:28.249Z,26.90
2022-12-10T15:46:30.925Z,24.30
2022-12-10T15:49:33.945Z,26.30
2022-12-10T15:52:37.377Z,40.22
2022-12-10T15:55:40.501Z,34.00
2022-12-10T15:58:45.172Z,23.93
2022-12-10T16:01:48.610Z,22.42
2022-12-10T16:04:51.156Z,19.70
2022-12-10T16:07:56.993Z,17.63
2022-12-10T16:11:03.949Z,18.37
2022-12-10T16:14:08.174Z,17.10
2022-12-10T16:17:12.779Z,16.40
2022-12-10T16:20:32.883Z,19.55
2022-12-10T16:23:36.375Z,18.38
2022-12-10T16:27:13.961Z,19.03
2022-12-10T16:30:26.819Z,20.57
2022-12-10T16:33:32.964Z,21.80
2022-12-10T16:36:39.127Z,19.55
2022-12-10T16:39:50.177Z,18.52
2022-12-10T16:42:54.602Z,22.87
2022-12-10T16:45:57.956Z,21.80
2022-12-10T16:49:02.524Z,28.67
2022-12-10T16:52:05.738Z,22.13
2022-12-10T16:55:31.232Z,20.55
2022-12-10T16:58:34.023Z,20.73
2022-12-10T17:01:36.562Z,24.07
2022-12-10T17:04:39.547Z,20.73
2022-12-10T17:07:42.710Z,23.27
2022-12-10T17:11:04.511Z,22.83
2022-12-10T17:14:11.401Z,22.50
2022-12-10T17:17:15.662Z,25.13
2022-12-10T17:20:19.821Z,31.50
2022-12-10T17:23:23.352Z,21.70
2022-12-10T17:26:30.549Z,48.85
2022-12-10T17:29:37.785Z,21.57
2022-12-10T17:32:41.185Z,38.53
2022-12-10T17:35:45.302Z,38.33
2022-12-10T17:38:48.798Z,38.63
2022-12-10T17:41:54.452Z,43.97
2022-12-10T17:44:57.797Z,29.63
2022-12-10T17:48:01.562Z,31.40
2022-12-10T17:51:04.861Z,26.38
2022-12-10T17:54:09.180Z,22.35
2022-12-10T17:57:17.028Z,22.95
2022-12-10T18:00:23.275Z,21.60
2022-12-10T18:03:25.704Z,26.70
2022-12-10T18:06:30.140Z,24.70
2022-12-10T18:09:33.261Z,23.25
2022-12-10T18:12:36.758Z,23.23
2022-12-10T18:15:39.857Z,25.83
2022-12-10T18:18:42.606Z,24.07
2022-12-10T18:21:49.051Z,18.10
2022-12-10T18:24:54.882Z,18.95
2022-12-10T18:28:07.154Z,27.83
2022-12-10T18:31:16.074Z,20.70
2022-12-10T18:34:19.814Z,30.83
2022-12-10T18:37:23.313Z,18.95
2022-12-10T18:40:26.484Z,21.10
2022-12-10T18:43:29.521Z,16.23
2022-12-10T18:46:33.105Z,20.00
2022-12-10T18:49:36.667Z,15.10
2022-12-10T18:52:39.922Z,14.40
2022-12-10T18:55:42.823Z,18.30
2022-12-10T18:58:46.239Z,11.73
2022-12-10T19:01:49.703Z,21.23
2022-12-10T19:04:52.864Z,19.90
2022-12-10T19:07:56.260Z,19.08
2022-12-10T19:10:58.987Z,15.73
2022-12-10T19:14:01.715Z,15.52
2022-12-10T19:17:06.217Z,17.03
2022-12-10T19:20:17.109Z,14.87
2022-12-10T19:23:21.415Z,13.82
2022-12-10T19:26:38.227Z,14.90
2022-12-10T19:29:43.173Z,11.55
2022-12-10T19:32:48.716Z,12.83
2022-12-10T19:35:54.245Z,13.90
2022-12-10T19:38:58.764Z,14.13
2022-12-10T19:42:05.883Z,15.38
2022-12-10T19:45:10.079Z,15.30
2022-12-10T19:48:14.611Z,13.87
2022-12-10T19:51:19.253Z,14.73
2022-12-10T19:54:23.769Z,15.65
2022-12-10T19:57:28.204Z,16.67
2022-12-10T20:00:35.706Z,18.17
2022-12-10T20:03:40.539Z,14.30
2022-12-10T20:06:46.910Z,16.73
2022-12-10T20:09:51.333Z,13.48
2022-12-10T20:12:57.382Z,14.18
2022-12-10T20:16:06.252Z,16.52
2022-12-10T20:19:16.017Z,23.07
2022-12-10T20:22:19.622Z,13.77
2022-12-10T20:25:24.685Z,31.30
2022-12-10T20:28:29.042Z,25.58
2022-12-10T20:31:32.146Z,19.52
2022-12-10T20:34:42.656Z,18.27
2022-12-10T20:37:51.440Z,16.63
2022-12-10T20:40:54.871Z,23.25
2022-12-10T20:43:58.183Z,16.77
2022-12-10T20:47:01.702Z,16.38
2022-12-10T20:50:09.541Z,16.30
2022-12-10T20:53:12.656Z,18.93
2022-12-10T20:56:18.585Z,17.90
2022-12-10T20:59:22.055Z,17.10
2022-12-10T21:02:25.138Z,25.55
2022-12-10T21:05:28.296Z,16.10
2022-12-10T21:08:31.860Z,15.00
2022-12-10T21:11:36.968Z,17.45
2022-12-10T21:14:59.601Z,18.58
2022-12-10T21:18:02.957Z,16.67
2022-12-10T21:21:05.971Z,14.17
2022-12-10T21:24:09.595Z,12.83
2022-12-10T21:27:14.754Z,15.98
2022-12-10T21:30:18.602Z,13.25
2022-12-10T21:33:22.950Z,13.90
2022-12-10T21:36:27.721Z,12.47
2022-12-10T21:39:30.807Z,11.63
2022-12-10T21:42:52.148Z,12.07
2022-12-10T21:45:57.088Z,12.25
2022-12-10T21:49:00.041Z,12.50
2022-12-10T21:52:03.053Z,13.63
2022-12-10T21:55:07.188Z,14.10
2022-12-10T21:58:11.978Z,17.23
2022-12-10T22:01:14.524Z,18.08
2022-12-10T22:04:17.766Z,14.93
2022-12-10T22:07:20.493Z,16.40
2022-12-10T22:10:22.802Z,16.97
2022-12-10T22:13:25.062Z,12.23
2022-12-10T22:16:27.259Z,13.75
2022-12-10T22:19:31.288Z,23.48
2022-12-10T22:22:34.334Z,10.13
2022-12-10T22:25:40.230Z,9.90
2022-12-10T22:28:42.649Z,7.90
2022-12-10T22:31:45.114Z,6.45
2022-12-10T22:34:47.419Z,6.57
2022-12-10T22:37:53.506Z,6.30
2022-12-10T22:40:56.504Z,7.30
2022-12-10T22:43:59.902Z,6.00
2022-12-10T22:47:03.250Z,6.68
2022-12-10T22:50:08.548Z,7.20
2022-12-10T22:53:11.740Z,7.20
2022-12-10T22:56:15.224Z,7.50
2022-12-10T22:59:17.518Z,6.75
2022-12-10T23:02:20.378Z,6.82
2022-12-10T23:05:22.796Z,6.72
2022-12-10T23:08:25.691Z,7.43
2022-12-10T23:11:28.030Z,7.47
2022-12-10T23:14:30.308Z,7.10
2022-12-10T23:17:32.504Z,6.63
2022-12-10T23:20:35.142Z,6.95
2022-12-10T23:23:37.321Z,6.43
2022-12-10T23:26:44.108Z,6.60
2022-12-10T23:29:46.688Z,6.35
2022-12-10T23:32:49.969Z,5.25
2022-12-10T23:35:52.374Z,5.15
2022-12-10T23:38:54.626Z,5.03
2022-12-10T23:41:56.803Z,5.00
2022-12-10T23:44:59.462Z,4.90
2022-12-10T23:48:02.127Z,4.90
2022-12-10T23:51:05.191Z,4.43
2022-12-10T23:54:07.864Z,4.13
2022-12-10T23:57:10.044Z,3.80
